Time;durP1;ratioP1;P1;durP2;ratioP2;P2;SDS_P1;SDS_P2;PMS_P1;PMS_P2;Temp;Humidity;BMP_temperature;BMP_pressure;BME280_temperature;BME280_humidity;BME280_pressure;Samples;Min_cycle;Max_cycle;Signal;HPM_P1;HPM_P2
2023/12/24 00:01:43;;;;;;;1.70;0.70;;;7.60;99.90;;;;;;5097911;28;20196;-44
2023/12/24 00:04:09;;;;;;;1.53;1.00;;;7.60;99.90;;;;;;5096862;28;20485;-44
2023/12/24 00:06:34;;;;;;;1.30;0.70;;;7.60;99.90;;;;;;5096125;28;20545;-44
2023/12/24 00:09:01;;;;;;;1.30;0.77;;;7.60;86.50;;;;;;5095573;28;20183;-42
2023/12/24 00:11:27;;;;;;;1.00;0.77;;;7.60;99.90;;;;;;5096789;28;20177;-44
2023/12/24 00:13:52;;;;;;;1.00;0.70;;;7.50;99.90;;;;;;5095254;28;20442;-43
2023/12/24 00:16:18;;;;;;;1.17;1.07;;;7.50;83.20;;;;;;5096349;28;20260;-43
2023/12/24 00:18:43;;;;;;;0.90;0.80;;;7.50;94.70;;;;;;5096744;28;20188;-45
2023/12/24 00:21:12;;;;;;;1.00;0.60;;;7.60;21.10;;;;;;5078813;28;20192;-41
2023/12/24 00:23:37;;;;;;;2.87;0.93;;;7.60;1.30;;;;;;5097548;28;20192;-46
2023/12/24 00:26:03;;;;;;;1.60;0.73;;;7.60;1.00;;;;;;5079687;28;20503;-44
2023/12/24 00:28:28;;;;;;;0.80;0.50;;;7.50;34.20;;;;;;5096824;28;20249;-44
2023/12/24 00:30:54;;;;;;;1.13;0.63;;;7.50;45.90;;;;;;5078176;28;20271;-42
2023/12/24 00:33:20;;;;;;;1.37;0.77;;;7.50;47.50;;;;;;5093781;28;20331;-42
2023/12/24 00:35:46;;;;;;;1.50;0.90;;;7.50;1.00;;;;;;5094227;28;20256;-41
2023/12/24 00:38:12;;;;;;;1.83;0.70;;;7.50;1.00;;;;;;5093202;28;20418;-41
2023/12/24 00:40:38;;;;;;;1.53;0.53;;;7.50;1.00;;;;;;5091945;28;20847;-46
2023/12/24 00:43:03;;;;;;;1.67;0.60;;;7.50;1.00;;;;;;5091909;28;20581;-43
2023/12/24 00:45:29;;;;;;;1.00;0.53;;;7.50;1.00;;;;;;5094042;28;20470;-42
2023/12/24 00:47:55;;;;;;;1.57;0.40;;;7.50;1.00;;;;;;5094012;28;20184;-41
2023/12/24 00:50:21;;;;;;;1.20;0.60;;;7.50;1.00;;;;;;5094415;28;20737;-43
2023/12/24 00:52:46;;;;;;;1.20;0.60;;;7.50;1.00;;;;;;5093833;28;20187;-46
2023/12/24 00:55:12;;;;;;;1.33;0.63;;;7.50;1.00;;;;;;5093687;28;20584;-46
2023/12/24 00:57:37;;;;;;;0.80;0.50;;;7.50;1.00;;;;;;5095615;28;20188;-42
2023/12/24 01:00:05;;;;;;;1.33;0.70;;;7.40;1.00;;;;;;5094556;28;20204;-46
2023/12/24 01:02:30;;;;;;;1.37;0.80;;;7.50;46.60;;;;;;5093960;28;20188;-41
2023/12/24 01:04:56;;;;;;;0.80;0.43;;;7.50;50.20;;;;;;5095963;28;20470;-44
2023/12/24 01:07:21;;;;;;;0.80;0.50;;;7.50;9.50;;;;;;5094064;28;20199;-43
2023/12/24 01:09:47;;;;;;;0.77;0.40;;;7.60;1.00;;;;;;5094181;28;20220;-44
2023/12/24 01:12:12;;;;;;;0.70;0.40;;;7.50;1.00;;;;;;5094290;28;20284;-42
2023/12/24 01:14:38;;;;;;;1.23;0.40;;;7.50;9.20;;;;;;5093842;28;20586;-43
2023/12/24 01:17:03;;;;;;;0.90;0.50;;;7.50;59.60;;;;;;5094189;28;20220;-42
2023/12/24 01:19:31;;;;;;;0.80;0.60;;;7.50;2.90;;;;;;5093819;28;20227;-45
2023/12/24 01:21:56;;;;;;;0.80;0.50;;;7.50;1.00;;;;;;5093854;28;20188;-42
2023/12/24 01:24:22;;;;;;;1.40;0.60;;;7.50;1.00;;;;;;5095655;28;20470;-42
2023/12/24 01:26:47;;;;;;;1.70;0.60;;;7.50;1.00;;;;;;5095094;28;20396;-41
2023/12/24 01:29:13;;;;;;;0.97;0.60;;;7.50;1.00;;;;;;5095073;28;20465;-44
2023/12/24 01:31:39;;;;;;;1.07;0.60;;;7.60;1.00;;;;;;5093508;28;20267;-43
2023/12/24 01:34:04;;;;;;;1.70;0.80;;;7.50;1.00;;;;;;5093787;28;20176;-46
2023/12/24 01:36:30;;;;;;;0.93;0.70;;;7.50;1.00;;;;;;5093311;28;20195;-42
2023/12/24 01:38:55;;;;;;;1.00;0.70;;;7.60;1.00;;;;;;5095025;28;20231;-43
2023/12/24 01:41:21;;;;;;;1.13;0.73;;;7.50;1.00;;;;;;5093032;28;20180;-43
2023/12/24 01:43:47;;;;;;;1.57;0.60;;;7.60;1.00;;;;;;5093852;28;20654;-42
2023/12/24 01:46:18;;;;;;;1.50;0.90;;;7.60;1.00;;;;;;5092915;28;20184;-42
2023/12/24 01:48:44;;;;;;;1.40;0.77;;;7.60;99.90;;;;;;5094612;28;20427;-46
2023/12/24 01:51:09;;;;;;;1.00;0.90;;;7.60;99.90;;;;;;5095692;28;20757;-43
2023/12/24 01:53:35;;;;;;;1.87;0.90;;;7.60;99.90;;;;;;5094899;28;20259;-43
2023/12/24 01:56:04;;;;;;;1.03;0.60;;;7.60;99.90;;;;;;5095326;28;20566;-44
2023/12/24 01:58:31;;;;;;;1.10;0.80;;;7.60;99.90;;;;;;5094842;28;20566;-46
2023/12/24 02:00:56;;;;;;;1.87;0.83;;;7.60;99.90;;;;;;5095184;28;20707;-46
2023/12/24 02:03:23;;;;;;;1.20;0.90;;;7.60;99.90;;;;;;5095846;28;20517;-44
2023/12/24 02:05:50;;;;;;;1.77;0.70;;;7.60;99.90;;;;;;5095184;28;20179;-42
2023/12/24 02:08:16;;;;;;;1.13;0.70;;;7.60;99.90;;;;;;5096480;28;20406;-43
2023/12/24 02:10:42;;;;;;;1.37;0.83;;;7.60;99.90;;;;;;5095306;28;20435;-43
2023/12/24 02:13:07;;;;;;;1.10;0.83;;;7.60;99.90;;;;;;5093935;28;20521;-44
2023/12/24 02:15:33;;;;;;;2.27;1.13;;;7.60;99.90;;;;;;5094512;28;20878;-41
2023/12/24 02:17:59;;;;;;;1.70;0.77;;;7.60;99.90;;;;;;5092458;28;20184;-46
2023/12/24 02:20:25;;;;;;;2.43;0.90;;;7.60;99.90;;;;;;5095097;28;20168;-45
2023/12/24 02:22:51;;;;;;;1.30;0.70;;;7.70;99.90;;;;;;5093577;28;20442;-42
2023/12/24 02:25:17;;;;;;;1.10;1.00;;;7.60;99.90;;;;;;5093679;28;20760;-44
2023/12/24 02:27:51;;;;;;;1.00;0.90;;;7.60;99.90;;;;;;5093398;28;20441;-45
2023/12/24 02:30:23;;;;;;;1.20;0.80;;;7.60;99.90;;;;;;5097483;28;20202;-43
2023/12/24 02:32:56;;;;;;;0.90;0.70;;;7.60;99.90;;;;;;5098706;28;20812;-43
2023/12/24 02:35:22;;;;;;;1.23;1.13;;;7.60;99.90;;;;;;5098479;28;20441;-41
2023/12/24 02:37:48;;;;;;;1.40;1.07;;;7.60;99.90;;;;;;5098382;28;20461;-43
2023/12/24 02:40:13;;;;;;;1.83;0.90;;;7.70;99.90;;;;;;5099257;28;20430;-44
2023/12/24 02:42:39;;;;;;;1.00;0.80;;;7.70;99.90;;;;;;5098267;28;20458;-41
2023/12/24 02:45:05;;;;;;;2.03;1.00;;;7.70;99.90;;;;;;5099075;28;20240;-41
2023/12/24 02:47:31;;;;;;;1.00;0.77;;;7.70;99.90;;;;;;5099755;28;20196;-41
2023/12/24 02:49:56;;;;;;;2.27;0.80;;;7.60;99.90;;;;;;5099798;28;20493;-44
2023/12/24 02:52:22;;;;;;;1.73;0.93;;;7.60;99.90;;;;;;5099613;28;20244;-45
2023/12/24 02:54:48;;;;;;;1.47;0.90;;;7.60;1.00;;;;;;5099546;28;20180;-44
2023/12/24 02:57:13;;;;;;;2.87;0.80;;;7.60;99.90;;;;;;5097880;28;20707;-44
2023/12/24 02:59:39;;;;;;;1.67;1.10;;;7.60;99.90;;;;;;5098593;28;20172;-45
2023/12/24 03:02:05;;;;;;;1.20;0.70;;;7.60;99.90;;;;;;5098526;28;20218;-42
2023/12/24 03:04:30;;;;;;;2.80;1.07;;;7.60;99.90;;;;;;5099465;28;20216;-44
2023/12/24 03:06:56;;;;;;;1.87;1.10;;;7.70;99.90;;;;;;5099736;28;20426;-46
2023/12/24 03:09:21;;;;;;;0.90;0.73;;;7.70;99.90;;;;;;5099966;28;20169;-44
2023/12/24 03:11:47;;;;;;;1.67;1.10;;;7.60;99.90;;;;;;5098906;28;20267;-45
2023/12/24 03:14:12;;;;;;;1.40;0.90;;;7.60;99.90;;;;;;5099339;28;20207;-44
2023/12/24 03:16:38;;;;;;;2.20;1.10;;;7.60;1.00;;;;;;5099122;28;20219;-42
2023/12/24 03:19:03;;;;;;;1.67;1.13;;;7.60;1.00;;;;;;5099263;28;20191;-44
2023/12/24 03:21:29;;;;;;;1.30;1.10;;;7.60;1.00;;;;;;5098181;28;20191;-42
2023/12/24 03:23:54;;;;;;;2.23;1.30;;;7.60;1.00;;;;;;5099103;28;20214;-43
2023/12/24 03:26:20;;;;;;;1.50;1.00;;;7.60;99.90;;;;;;5098516;28;20160;-41
2023/12/24 03:28:48;;;;;;;2.63;1.10;;;7.60;1.00;;;;;;5099429;28;20173;-44
2023/12/24 03:31:14;;;;;;;1.20;0.87;;;7.70;99.90;;;;;;5098983;28;20431;-42
2023/12/24 03:33:39;;;;;;;1.80;1.30;;;7.70;99.90;;;;;;5097864;28;20437;-45
2023/12/24 03:36:07;;;;;;;1.20;1.00;;;7.60;99.90;;;;;;5096610;28;20322;-43
2023/12/24 03:38:33;;;;;;;1.53;1.20;;;7.60;99.90;;;;;;5097262;28;20172;-41
2023/12/24 03:40:58;;;;;;;1.27;1.10;;;7.60;99.90;;;;;;5096103;28;20422;-43
2023/12/24 03:43:24;;;;;;;1.20;0.90;;;7.60;1.00;;;;;;5097050;28;20173;-43
2023/12/24 03:45:49;;;;;;;1.17;0.83;;;7.60;1.00;;;;;;5094927;28;20283;-41
2023/12/24 03:48:15;;;;;;;1.47;1.13;;;7.60;1.00;;;;;;5095040;28;20188;-43
2023/12/24 03:50:40;;;;;;;1.70;1.00;;;7.60;1.00;;;;;;5094539;28;20281;-44
2023/12/24 03:53:06;;;;;;;1.30;1.20;;;7.60;99.90;;;;;;5095321;28;20176;-42
2023/12/24 03:55:32;;;;;;;1.80;1.20;;;7.60;1.00;;;;;;5095988;28;20275;-42
2023/12/24 03:57:58;;;;;;;2.20;0.90;;;7.60;99.90;;;;;;5096113;28;20723;-43
2023/12/24 04:00:24;;;;;;;1.50;1.40;;;7.60;99.90;;;;;;5095571;28;20314;-41
2023/12/24 04:02:49;;;;;;;2.53;1.50;;;7.60;99.90;;;;;;5097174;28;20506;-41
2023/12/24 04:05:15;;;;;;;1.20;0.87;;;7.60;99.90;;;;;;5097320;28;20542;-41
2023/12/24 04:07:41;;;;;;;1.60;1.20;;;7.60;99.90;;;;;;5097368;28;20180;-43
2023/12/24 04:10:07;;;;;;;1.67;1.10;;;7.70;99.90;;;;;;5097589;28;20262;-42
2023/12/24 04:12:32;;;;;;;1.70;1.10;;;7.70;99.90;;;;;;5097093;28;20203;-42
2023/12/24 04:14:58;;;;;;;1.60;1.00;;;7.70;41.80;;;;;;5096648;28;20831;-42
2023/12/24 04:17:23;;;;;;;1.10;0.80;;;7.60;16.90;;;;;;5098017;28;20185;-41
2023/12/24 04:19:49;;;;;;;1.90;1.50;;;7.70;20.30;;;;;;5097569;28;20184;-45
2023/12/24 04:22:14;;;;;;;2.27;1.40;;;7.70;1.00;;;;;;5096312;28;20184;-44
2023/12/24 04:24:40;;;;;;;1.63;0.93;;;7.70;1.00;;;;;;5097300;28;20208;-44
2023/12/24 04:27:05;;;;;;;1.47;1.27;;;7.70;33.30;;;;;;5097682;28;20195;-43
2023/12/24 04:29:31;;;;;;;1.40;1.20;;;7.70;72.70;;;;;;5096302;28;20168;-44
2023/12/24 04:31:57;;;;;;;1.30;1.13;;;7.70;99.90;;;;;;5094748;28;20355;-43
2023/12/24 04:34:22;;;;;;;1.00;0.80;;;7.70;70.30;;;;;;5094500;28;20692;-45
2023/12/24 04:36:48;;;;;;;1.53;1.17;;;7.70;96.10;;;;;;5094113;28;20222;-44
2023/12/24 04:39:13;;;;;;;1.20;1.00;;;7.70;45.90;;;;;;5093985;28;20593;-43
2023/12/24 04:41:39;;;;;;;1.90;1.73;;;7.70;99.90;;;;;;5093520;28;20187;-43
2023/12/24 04:44:04;;;;;;;1.90;1.10;;;7.70;99.90;;;;;;5094102;28;20219;-45
2023/12/24 04:46:30;;;;;;;1.40;0.97;;;7.70;99.90;;;;;;5095810;28;20184;-45
2023/12/24 04:48:55;;;;;;;1.30;1.03;;;7.60;99.90;;;;;;5096691;28;20259;-44
2023/12/24 04:51:22;;;;;;;1.10;0.83;;;7.60;99.90;;;;;;5097115;28;20531;-54
2023/12/24 04:53:48;;;;;;;1.50;1.10;;;7.60;99.90;;;;;;5096545;28;20544;-42
2023/12/24 04:56:23;;;;;;;3.43;0.90;;;7.70;99.90;;;;;;5097045;28;20489;-44
2023/12/24 04:58:48;;;;;;;1.53;0.97;;;7.60;99.90;;;;;;5097287;28;20294;-41
2023/12/24 05:01:16;;;;;;;1.40;1.10;;;7.50;1.00;;;;;;5096589;28;20458;-43
2023/12/24 05:03:41;;;;;;;1.30;1.07;;;7.60;1.00;;;;;;5095971;28;20180;-45
2023/12/24 05:06:07;;;;;;;2.37;1.00;;;7.60;1.00;;;;;;5096951;28;20499;-42
2023/12/24 05:08:32;;;;;;;2.63;1.10;;;7.60;1.00;;;;;;5097124;28;20598;-44
2023/12/24 05:11:04;;;;;;;1.50;1.00;;;7.50;1.00;;;;;;5095777;28;20419;-44
2023/12/24 05:13:29;;;;;;;1.00;0.87;;;7.50;1.00;;;;;;5095967;28;20184;-45
2023/12/24 05:15:55;;;;;;;1.10;0.83;;;7.50;1.00;;;;;;5096804;28;20473;-46
2023/12/24 05:18:21;;;;;;;7.30;3.97;;;7.50;1.00;;;;;;5097137;28;20188;-50
2023/12/24 05:20:46;;;;;;;1.40;1.03;;;7.50;1.00;;;;;;5096939;28;20183;-43
2023/12/24 05:23:12;;;;;;;1.20;0.70;;;7.50;1.00;;;;;;5096488;28;20184;-42
2023/12/24 05:25:37;;;;;;;0.87;0.63;;;7.50;1.00;;;;;;5096608;28;20276;-42
2023/12/24 05:28:03;;;;;;;1.03;0.80;;;7.50;1.00;;;;;;5096498;28;20176;-44
2023/12/24 05:30:29;;;;;;;0.80;0.50;;;7.50;1.00;;;;;;5097081;28;20198;-43
2023/12/24 05:32:54;;;;;;;1.60;1.07;;;7.50;1.00;;;;;;5096629;28;20558;-46
2023/12/24 05:35:20;;;;;;;4.13;0.90;;;7.40;1.00;;;;;;5096439;28;20512;-43
2023/12/24 05:37:46;;;;;;;1.10;0.80;;;7.40;1.00;;;;;;5096003;28;20253;-43
2023/12/24 05:40:12;;;;;;;1.47;1.10;;;7.50;1.00;;;;;;5095304;28;20271;-44
2023/12/24 05:42:37;;;;;;;1.13;0.80;;;7.50;1.00;;;;;;5095384;28;20434;-42
2023/12/24 05:45:04;;;;;;;1.40;1.07;;;7.50;1.00;;;;;;5095393;28;20282;-45
2023/12/24 05:47:29;;;;;;;1.20;0.80;;;7.50;1.00;;;;;;5095694;28;20487;-44
2023/12/24 05:49:55;;;;;;;4.87;1.07;;;7.40;99.90;;;;;;5095575;28;20547;-42
2023/12/24 05:52:20;;;;;;;1.17;0.80;;;7.40;99.90;;;;;;5096155;28;20222;-46
2023/12/24 05:54:46;;;;;;;1.23;0.73;;;7.40;99.90;;;;;;5093707;28;20204;-44
2023/12/24 05:57:12;;;;;;;1.63;0.80;;;7.40;99.90;;;;;;5094394;28;20200;-44
2023/12/24 05:59:37;;;;;;;1.30;0.87;;;7.40;99.90;;;;;;5094119;28;20185;-43
2023/12/24 06:02:03;;;;;;;1.77;0.80;;;7.40;99.90;;;;;;5095049;28;20181;-45
2023/12/24 06:04:30;;;;;;;2.13;1.00;;;7.40;99.90;;;;;;5096470;28;20261;-44
2023/12/24 06:06:56;;;;;;;1.23;0.73;;;7.40;99.90;;;;;;5097223;28;20184;-44
2023/12/24 06:09:22;;;;;;;1.90;0.87;;;7.40;1.00;;;;;;5098153;28;20399;-44
2023/12/24 06:11:48;;;;;;;1.13;0.73;;;7.40;1.00;;;;;;5099323;28;20527;-42
2023/12/24 06:14:14;;;;;;;1.30;0.87;;;7.40;1.00;;;;;;5097133;28;20252;-43
2023/12/24 06:16:39;;;;;;;1.27;0.73;;;7.50;1.00;;;;;;5098808;28;20583;-45
2023/12/24 06:19:05;;;;;;;1.00;0.63;;;7.50;1.00;;;;;;5098440;28;20200;-43
2023/12/24 06:21:31;;;;;;;1.00;0.80;;;7.40;1.00;;;;;;5097649;28;20249;-44
2023/12/24 06:23:56;;;;;;;1.20;0.80;;;7.40;1.00;;;;;;5097788;28;20515;-43
2023/12/24 06:26:22;;;;;;;1.00;0.70;;;7.40;1.00;;;;;;5099035;28;20183;-43
2023/12/24 06:28:47;;;;;;;2.13;0.83;;;7.40;1.00;;;;;;5100368;28;20325;-44
2023/12/24 06:31:20;;;;;;;1.80;0.90;;;7.50;1.00;;;;;;5099827;28;20309;-44
2023/12/24 06:33:45;;;;;;;1.30;0.77;;;7.50;1.00;;;;;;5100457;28;20180;-43
2023/12/24 06:36:11;;;;;;;0.90;0.60;;;7.50;1.00;;;;;;5099663;28;20487;-46
2023/12/24 06:38:36;;;;;;;1.27;1.00;;;7.50;1.00;;;;;;5098950;28;20192;-44
2023/12/24 06:41:03;;;;;;;1.33;0.87;;;7.50;1.00;;;;;;5099541;28;20450;-45
2023/12/24 06:43:28;;;;;;;0.93;0.70;;;7.50;1.00;;;;;;5099751;28;20176;-45
2023/12/24 06:45:54;;;;;;;1.23;0.90;;;7.50;1.00;;;;;;5099525;28;20754;-43
2023/12/24 06:48:19;;;;;;;1.30;0.83;;;7.60;1.00;;;;;;5099881;28;20558;-42
2023/12/24 06:50:45;;;;;;;1.30;1.03;;;7.50;1.00;;;;;;5099354;28;20690;-44
2023/12/24 06:53:10;;;;;;;1.13;0.80;;;7.60;1.00;;;;;;5099806;28;20208;-42
2023/12/24 06:55:36;;;;;;;1.93;0.80;;;7.70;1.00;;;;;;5097618;28;20215;-45
2023/12/24 06:58:03;;;;;;;1.10;0.80;;;7.70;1.00;;;;;;5099584;28;20180;-42
2023/12/24 07:00:29;;;;;;;1.20;0.93;;;7.70;1.00;;;;;;5099336;28;20585;-43
2023/12/24 07:02:55;;;;;;;2.80;0.90;;;7.70;1.00;;;;;;5098618;28;20434;-42
2023/12/24 07:05:21;;;;;;;2.90;1.13;;;7.70;1.00;;;;;;5099727;28;20481;-42
2023/12/24 07:07:46;;;;;;;2.10;0.70;;;7.70;1.00;;;;;;5097872;28;20180;-44
2023/12/24 07:10:12;;;;;;;1.37;0.87;;;7.70;1.00;;;;;;5098634;28;20462;-42
2023/12/24 07:12:37;;;;;;;1.60;0.80;;;7.70;1.00;;;;;;5097660;28;20172;-43
2023/12/24 07:15:03;;;;;;;1.33;0.70;;;7.80;1.00;;;;;;5098793;28;20251;-42
2023/12/24 07:17:30;;;;;;;1.10;0.67;;;7.80;1.00;;;;;;5097409;28;20188;-46
2023/12/24 07:19:55;;;;;;;1.83;0.80;;;7.90;1.00;;;;;;5097776;28;20480;-42
2023/12/24 07:22:21;;;;;;;1.00;0.63;;;7.80;1.00;;;;;;5098157;28;20423;-41
2023/12/24 07:24:46;;;;;;;0.93;0.53;;;7.80;1.00;;;;;;5098132;28;20594;-42
2023/12/24 07:27:12;;;;;;;2.10;0.80;;;7.80;1.00;;;;;;5099004;28;20180;-42
2023/12/24 07:29:41;;;;;;;1.00;0.60;;;7.80;1.00;;;;;;5098227;28;20176;-41
2023/12/24 07:32:06;;;;;;;1.40;1.00;;;7.80;1.00;;;;;;5097895;28;20271;-45
2023/12/24 07:34:32;;;;;;;0.70;0.47;;;7.80;1.00;;;;;;5098342;28;20780;-45
2023/12/24 07:36:57;;;;;;;0.80;0.43;;;7.80;1.00;;;;;;5097857;28;20474;-44
2023/12/24 07:39:22;;;;;;;0.87;0.53;;;7.90;1.00;;;;;;5097989;28;20543;-42
2023/12/24 07:41:48;;;;;;;1.47;0.90;;;7.90;1.00;;;;;;5097429;28;20341;-47
2023/12/24 07:44:14;;;;;;;1.23;0.60;;;7.80;1.00;;;;;;5097075;28;20208;-46
2023/12/24 07:46:39;;;;;;;1.10;0.90;;;7.80;1.00;;;;;;5097484;28;20183;-42
2023/12/24 07:49:05;;;;;;;0.90;0.47;;;7.80;1.00;;;;;;5097051;28;20281;-45
2023/12/24 07:51:31;;;;;;;2.70;0.63;;;7.90;1.00;;;;;;5098412;28;20317;-43
2023/12/24 07:53:57;;;;;;;2.30;0.73;;;7.90;1.00;;;;;;5095951;28;20435;-43
2023/12/24 07:56:23;;;;;;;0.97;0.70;;;7.90;1.00;;;;;;5095817;28;20442;-42
2023/12/24 07:58:48;;;;;;;2.13;1.00;;;7.90;1.00;;;;;;5095544;28;20195;-44
2023/12/24 08:01:14;;;;;;;1.63;0.83;;;7.90;1.00;;;;;;5096795;28;20223;-43
2023/12/24 08:03:39;;;;;;;0.90;0.60;;;7.90;1.00;;;;;;5095375;28;20196;-42
2023/12/24 08:06:05;;;;;;;1.00;0.60;;;7.90;1.00;;;;;;5096716;28;20548;-44
2023/12/24 08:08:30;;;;;;;2.10;1.10;;;7.90;1.00;;;;;;5095562;28;20188;-41
2023/12/24 08:10:56;;;;;;;1.60;0.90;;;7.90;1.00;;;;;;5096531;28;20180;-46
2023/12/24 08:13:22;;;;;;;1.07;0.77;;;8.00;1.00;;;;;;5095995;28;20263;-42
2023/12/24 08:15:47;;;;;;;0.90;0.60;;;8.00;1.00;;;;;;5096306;28;20176;-45
2023/12/24 08:18:13;;;;;;;0.77;0.43;;;8.00;1.00;;;;;;5096529;28;20238;-45
2023/12/24 08:20:39;;;;;;;1.40;0.50;;;8.10;99.90;;;;;;5096342;28;20280;-42
2023/12/24 08:23:07;;;;;;;1.20;0.47;;;8.10;99.90;;;;;;5096115;28;20536;-43
2023/12/24 08:25:32;;;;;;;0.80;0.67;;;8.10;1.00;;;;;;5095087;28;20485;-42
2023/12/24 08:27:59;;;;;;;1.23;1.10;;;8.10;1.00;;;;;;5093662;28;20748;-45
2023/12/24 08:30:25;;;;;;;0.70;0.30;;;8.10;1.00;;;;;;5094987;28;20573;-47
2023/12/24 08:32:50;;;;;;;1.03;0.50;;;8.10;1.00;;;;;;5096500;28;20517;-44
2023/12/24 08:35:16;;;;;;;1.53;1.00;;;8.20;99.90;;;;;;5096252;28;20192;-43
2023/12/24 08:37:42;;;;;;;0.87;0.47;;;8.30;99.90;;;;;;5096493;28;20184;-43
2023/12/24 08:40:08;;;;;;;1.67;0.97;;;8.20;99.90;;;;;;5096561;28;20188;-46
2023/12/24 08:42:35;;;;;;;1.13;0.60;;;8.30;99.90;;;;;;5097116;28;20184;-42
2023/12/24 08:45:02;;;;;;;1.40;0.80;;;8.30;99.90;;;;;;5096083;28;20481;-42
2023/12/24 08:47:27;;;;;;;1.00;0.50;;;8.40;99.90;;;;;;5093399;28;20423;-47
2023/12/24 08:49:53;;;;;;;0.80;0.53;;;8.40;99.90;;;;;;5095881;28;20805;-44
2023/12/24 08:52:20;;;;;;;1.10;0.60;;;8.40;99.90;;;;;;5096310;28;20554;-43
2023/12/24 08:54:46;;;;;;;0.80;0.57;;;8.40;99.90;;;;;;5095719;28;20180;-45
2023/12/24 08:57:11;;;;;;;0.80;0.50;;;8.40;99.90;;;;;;5094800;28;20420;-43
2023/12/24 08:59:37;;;;;;;0.80;0.47;;;8.40;99.90;;;;;;5095638;28;20725;-43
2023/12/24 09:02:02;;;;;;;2.80;0.70;;;8.40;99.90;;;;;;5094845;28;20207;-42
2023/12/24 09:04:28;;;;;;;1.30;0.60;;;8.50;1.00;;;;;;5095165;28;20225;-41
2023/12/24 09:06:54;;;;;;;0.80;0.40;;;8.40;1.00;;;;;;5095360;28;20295;-44
2023/12/24 09:09:20;;;;;;;1.10;0.57;;;8.50;1.00;;;;;;5095632;28;20517;-42
2023/12/24 09:11:47;;;;;;;0.90;0.60;;;8.50;1.00;;;;;;5095012;28;20385;-42
2023/12/24 09:14:12;;;;;;;0.77;0.40;;;8.50;1.00;;;;;;5095317;28;20259;-45
2023/12/24 09:16:38;;;;;;;1.03;0.70;;;8.50;1.00;;;;;;5095445;28;20734;-43
2023/12/24 09:19:04;;;;;;;1.27;0.40;;;8.50;1.00;;;;;;5094982;28;20268;-44
2023/12/24 09:21:29;;;;;;;1.00;0.63;;;8.50;1.00;;;;;;5095199;28;20176;-45
2023/12/24 09:23:56;;;;;;;0.90;0.60;;;8.40;1.00;;;;;;5094158;28;20200;-44
2023/12/24 09:26:22;;;;;;;1.00;0.50;;;8.40;1.00;;;;;;5094927;28;20204;-43
2023/12/24 09:28:47;;;;;;;1.10;0.60;;;8.30;1.00;;;;;;5093250;28;20500;-43
2023/12/24 09:31:13;;;;;;;0.80;0.50;;;8.40;10.50;;;;;;5094597;28;20227;-43
2023/12/24 09:33:38;;;;;;;0.70;0.50;;;8.30;29.70;;;;;;5095673;28;20225;-42
2023/12/24 09:36:07;;;;;;;1.23;0.77;;;8.40;27.90;;;;;;5095791;28;20258;-43
2023/12/24 09:38:33;;;;;;;0.77;0.50;;;8.40;25.90;;;;;;5094988;28;20659;-42
2023/12/24 09:40:59;;;;;;;0.90;0.60;;;8.40;8.00;;;;;;5093584;28;20462;-42
2023/12/24 09:43:25;;;;;;;1.60;0.80;;;8.50;1.00;;;;;;5095289;28;20516;-43
2023/12/24 09:45:51;;;;;;;2.57;0.70;;;8.50;1.00;;;;;;5096246;28;20215;-43
2023/12/24 09:48:16;;;;;;;1.00;0.50;;;8.50;1.00;;;;;;5096174;28;20789;-44
2023/12/24 09:50:42;;;;;;;0.80;0.50;;;8.50;1.00;;;;;;5096302;28;20610;-44
2023/12/24 09:53:09;;;;;;;1.03;0.80;;;8.60;1.00;;;;;;5096247;28;20176;-44
2023/12/24 09:55:35;;;;;;;1.10;0.70;;;8.60;1.00;;;;;;5096310;28;20310;-46
2023/12/24 09:58:00;;;;;;;1.47;0.97;;;8.60;1.00;;;;;;5096175;28;20434;-44
2023/12/24 10:00:26;;;;;;;1.60;1.10;;;8.60;1.00;;;;;;5096011;28;20172;-46
2023/12/24 10:02:52;;;;;;;1.13;0.87;;;8.60;1.00;;;;;;5095014;28;20185;-43
2023/12/24 10:05:18;;;;;;;0.90;0.50;;;8.60;1.00;;;;;;5092873;28;20250;-42
2023/12/24 10:07:45;;;;;;;0.83;0.60;;;8.60;1.00;;;;;;5092653;28;20425;-48
2023/12/24 10:10:12;;;;;;;1.37;0.50;;;8.70;1.00;;;;;;5093797;28;20428;-44
2023/12/24 10:12:37;;;;;;;1.40;0.80;;;8.60;1.00;;;;;;5093265;28;20463;-42
2023/12/24 10:15:03;;;;;;;2.37;1.20;;;8.60;1.00;;;;;;5094937;28;20513;-44
2023/12/24 10:17:33;;;;;;;1.30;1.10;;;8.80;1.00;;;;;;5094345;28;20589;-44
2023/12/24 10:20:02;;;;;;;3.00;1.40;;;9.00;1.00;;;;;;5093812;28;20716;-43
2023/12/24 10:22:27;;;;;;;6.43;1.87;;;9.10;1.00;;;;;;5095048;28;20727;-47
2023/12/24 10:25:01;;;;;;;1.20;0.70;;;9.30;99.90;;;;;;5095495;28;20454;-44
2023/12/24 10:27:26;;;;;;;1.17;0.60;;;9.30;1.00;;;;;;5093196;28;20636;-42
2023/12/24 10:29:53;;;;;;;1.20;0.53;;;9.10;1.00;;;;;;5093781;28;20521;-42
2023/12/24 10:32:24;;;;;;;1.40;0.70;;;9.00;5.30;;;;;;5095110;28;20550;-47
2023/12/24 10:34:57;;;;;;;0.90;0.60;;;8.90;50.10;;;;;;5093171;28;20414;-46
2023/12/24 10:37:27;;;;;;;1.30;0.40;;;8.90;99.90;;;;;;5093581;28;20458;-42
2023/12/24 10:39:53;;;;;;;1.43;0.60;;;8.90;99.90;;;;;;5094158;28;20430;-41
2023/12/24 10:42:19;;;;;;;0.90;0.60;;;8.80;99.90;;;;;;5095223;28;20458;-46
2023/12/24 10:44:45;;;;;;;2.40;0.60;;;8.90;99.90;;;;;;5094467;28;20791;-44
2023/12/24 10:47:12;;;;;;;0.90;0.50;;;8.90;99.90;;;;;;5095137;28;20521;-42
2023/12/24 10:49:38;;;;;;;0.90;0.47;;;8.90;99.90;;;;;;5094621;28;20501;-41
2023/12/24 10:52:10;;;;;;;0.83;0.50;;;8.90;99.90;;;;;;5080586;28;20445;-45
2023/12/24 10:54:38;;;;;;;0.90;0.50;;;8.90;99.90;;;;;;5094554;28;20505;-44
2023/12/24 10:57:09;;;;;;;0.90;0.50;;;8.90;99.90;;;;;;5096440;28;20474;-42
2023/12/24 11:00:14;;;;;;;0.90;0.50;;;8.90;99.90;;;;;;5096720;28;20877;-42
2023/12/24 11:02:47;;;;;;;1.47;0.60;;;8.90;99.90;;;;;;5096195;28;20414;-44
2023/12/24 11:05:48;;;;;;;2.00;0.50;;;9.00;99.90;;;;;;5097878;28;20474;-44
2023/12/24 11:08:19;;;;;;;0.73;0.47;;;9.00;99.90;;;;;;5096635;28;20491;-46
2023/12/24 11:10:56;;;;;;;0.80;0.40;;;8.90;99.90;;;;;;5098819;28;20685;-43
2023/12/24 11:13:31;;;;;;;0.80;0.50;;;8.90;99.90;;;;;;5098727;28;20406;-43
2023/12/24 11:15:57;;;;;;;0.80;0.40;;;8.90;99.90;;;;;;5097487;28;20824;-44
2023/12/24 11:18:45;;;;;;;1.00;0.33;;;8.90;99.90;;;;;;5095935;28;20670;-46
2023/12/24 11:21:15;;;;;;;1.30;0.50;;;8.90;99.90;;;;;;5079022;28;20437;-44
2023/12/24 11:23:42;;;;;;;0.80;0.43;;;9.00;99.90;;;;;;5095879;28;20644;-41
2023/12/24 11:26:30;;;;;;;0.80;0.40;;;9.00;92.00;;;;;;5095514;28;20516;-43
2023/12/24 11:28:56;;;;;;;1.10;0.57;;;9.10;65.40;;;;;;5096310;28;20398;-43
2023/12/24 11:31:24;;;;;;;0.80;0.50;;;9.10;45.30;;;;;;5097416;28;20444;-42
2023/12/24 11:33:50;;;;;;;1.20;0.70;;;9.20;56.00;;;;;;5094503;28;20406;-44
2023/12/24 11:36:17;;;;;;;0.70;0.40;;;9.30;1.00;;;;;;5097255;28;20472;-44
2023/12/24 11:38:44;;;;;;;2.37;0.60;;;9.30;1.00;;;;;;5097455;28;20442;-43
2023/12/24 11:41:12;;;;;;;1.07;0.80;;;9.30;1.00;;;;;;5096035;28;20414;-43
2023/12/24 11:43:40;;;;;;;1.20;0.93;;;9.30;1.00;;;;;;5093318;28;20595;-42
2023/12/24 11:46:06;;;;;;;1.07;0.60;;;9.30;1.00;;;;;;5092554;28;20430;-44
2023/12/24 11:48:33;;;;;;;1.17;0.87;;;9.30;1.00;;;;;;5091938;28;20420;-45
2023/12/24 11:51:04;;;;;;;0.97;0.67;;;9.40;1.00;;;;;;5092459;28;20517;-44
2023/12/24 11:53:33;;;;;;;1.00;0.40;;;9.40;1.00;;;;;;5093720;28;20713;-43
2023/12/24 11:56:07;;;;;;;0.90;0.60;;;9.50;1.00;;;;;;5095882;28;20696;-44
2023/12/24 11:58:32;;;;;;;4.10;0.90;;;9.40;1.00;;;;;;5095571;28;20426;-45
2023/12/24 12:01:02;;;;;;;3.80;1.50;;;9.50;99.90;;;;;;5095293;28;20410;-46
2023/12/24 12:03:32;;;;;;;1.20;0.57;;;9.70;99.90;;;;;;5096667;28;20176;-49
2023/12/24 12:05:58;;;;;;;1.23;0.90;;;9.80;1.00;;;;;;5097918;28;20775;-46
2023/12/24 12:08:24;;;;;;;1.17;0.67;;;9.80;1.00;;;;;;5096240;28;20433;-49
2023/12/24 12:10:50;;;;;;;2.67;0.80;;;10.40;1.00;;;;;;5095621;28;20418;-50
2023/12/24 12:13:16;;;;;;;1.20;0.50;;;10.50;1.00;;;;;;5094329;28;20184;-45
2023/12/24 12:15:42;;;;;;;5.10;0.97;;;10.60;99.90;;;;;;5094619;28;20457;-47
2023/12/24 12:18:08;;;;;;;0.83;0.50;;;10.80;99.90;;;;;;5094157;28;20438;-48
2023/12/24 12:20:34;;;;;;;0.80;0.50;;;10.50;40.90;;;;;;5094427;28;20344;-44
2023/12/24 12:23:00;;;;;;;1.37;0.90;;;10.30;99.90;;;;;;5094958;28;20693;-44
2023/12/24 12:25:25;;;;;;;1.33;0.50;;;10.20;52.20;;;;;;5095906;28;20629;-45
2023/12/24 12:27:51;;;;;;;1.10;0.67;;;10.40;99.90;;;;;;5095945;28;20180;-43
2023/12/24 12:30:19;;;;;;;1.93;0.73;;;10.40;1.00;;;;;;5094877;28;20185;-43
2023/12/24 12:32:45;;;;;;;1.07;0.50;;;10.30;99.90;;;;;;5095906;28;20564;-42
2023/12/24 12:35:11;;;;;;;0.80;0.40;;;10.20;18.00;;;;;;5096455;28;20431;-46
2023/12/24 12:37:36;;;;;;;1.10;0.70;;;9.90;99.90;;;;;;5094000;28;20199;-42
2023/12/24 12:40:03;;;;;;;0.90;0.50;;;9.80;1.00;;;;;;5095219;28;20438;-46
2023/12/24 12:42:29;;;;;;;0.80;0.50;;;9.60;99.90;;;;;;5096249;28;20172;-43
2023/12/24 12:44:54;;;;;;;1.30;0.60;;;9.40;99.90;;;;;;5094770;28;20462;-45
2023/12/24 12:47:20;;;;;;;0.80;0.50;;;9.40;99.90;;;;;;5094789;28;20180;-42
2023/12/24 12:49:46;;;;;;;0.87;0.47;;;9.20;1.00;;;;;;5093817;28;20226;-43
2023/12/24 12:52:11;;;;;;;0.90;0.50;;;9.20;1.00;;;;;;5094579;28;20251;-43
2023/12/24 12:54:37;;;;;;;1.03;0.50;;;9.30;1.00;;;;;;5093128;28;20426;-43
2023/12/24 12:57:03;;;;;;;1.80;0.70;;;9.30;1.00;;;;;;5093794;28;20169;-43
2023/12/24 12:59:28;;;;;;;1.00;0.70;;;9.30;1.00;;;;;;5094348;28;20573;-43